sensor_id;sensor_type;location;lat;lon;timestamp;temperature;humidity
49385;DHT22;36795;45.028;38.968;2022-07-19T00:02:10;23.80;48.60
49385;DHT22;36795;45.028;38.968;2022-07-19T00:04:56;23.70;48.60
49385;DHT22;36795;45.028;38.968;2022-07-19T00:07:43;23.80;48.70
49385;DHT22;36795;45.028;38.968;2022-07-19T00:10:30;23.80;48.60
49385;DHT22;36795;45.028;38.968;2022-07-19T00:13:16;23.70;48.40
49385;DHT22;36795;45.028;38.968;2022-07-19T00:16:02;23.70;48.40
49385;DHT22;36795;45.028;38.968;2022-07-19T00:18:48;23.70;48.40
49385;DHT22;36795;45.028;38.968;2022-07-19T00:21:34;23.60;48.40
49385;DHT22;36795;45.028;38.968;2022-07-19T00:24:20;23.60;48.40
49385;DHT22;36795;45.028;38.968;2022-07-19T00:27:07;23.60;48.40
49385;DHT22;36795;45.028;38.968;2022-07-19T00:29:53;23.50;48.30
49385;DHT22;36795;45.028;38.968;2022-07-19T00:32:39;23.50;48.20
49385;DHT22;36795;45.028;38.968;2022-07-19T00:35:24;23.50;48.30
49385;DHT22;36795;45.028;38.968;2022-07-19T00:38:14;23.40;48.30
49385;DHT22;36795;45.028;38.968;2022-07-19T00:41:01;23.50;48.20
49385;DHT22;36795;45.028;38.968;2022-07-19T00:43:48;23.50;48.30
49385;DHT22;36795;45.028;38.968;2022-07-19T00:46:37;23.50;48.30
49385;DHT22;36795;45.028;38.968;2022-07-19T00:49:24;23.50;48.20
49385;DHT22;36795;45.028;38.968;2022-07-19T00:52:13;23.40;48.20
49385;DHT22;36795;45.028;38.968;2022-07-19T00:54:59;23.40;48.20
49385;DHT22;36795;45.028;38.968;2022-07-19T00:57:46;23.40;48.30
49385;DHT22;36795;45.028;38.968;2022-07-19T01:00:34;23.40;48.20
49385;DHT22;36795;45.028;38.968;2022-07-19T01:03:20;23.40;48.30
49385;DHT22;36795;45.028;38.968;2022-07-19T01:06:08;23.30;48.10
49385;DHT22;36795;45.028;38.968;2022-07-19T01:08:55;23.40;48.20
49385;DHT22;36795;45.028;38.968;2022-07-19T01:11:41;23.40;48.20
49385;DHT22;36795;45.028;38.968;2022-07-19T01:14:27;23.40;48.30
49385;DHT22;36795;45.028;38.968;2022-07-19T01:17:13;23.30;48.10
49385;DHT22;36795;45.028;38.968;2022-07-19T01:19:59;23.30;48.20
49385;DHT22;36795;45.028;38.968;2022-07-19T01:22:46;23.30;48.10
49385;DHT22;36795;45.028;38.968;2022-07-19T01:25:34;23.30;48.00
49385;DHT22;36795;45.028;38.968;2022-07-19T01:28:21;23.30;48.20
49385;DHT22;36795;45.028;38.968;2022-07-19T01:31:07;23.20;48.20
49385;DHT22;36795;45.028;38.968;2022-07-19T01:33:53;23.20;48.30
49385;DHT22;36795;45.028;38.968;2022-07-19T01:36:39;23.10;48.40
49385;DHT22;36795;45.028;38.968;2022-07-19T01:39:25;23.10;48.40
49385;DHT22;36795;45.028;38.968;2022-07-19T01:42:11;23.10;48.30
49385;DHT22;36795;45.028;38.968;2022-07-19T01:44:58;23.00;48.50
49385;DHT22;36795;45.028;38.968;2022-07-19T01:47:44;23.00;48.70
49385;DHT22;36795;45.028;38.968;2022-07-19T01:50:30;23.10;48.40
49385;DHT22;36795;45.028;38.968;2022-07-19T01:53:16;23.00;48.40
49385;DHT22;36795;45.028;38.968;2022-07-19T01:56:06;22.90;48.50
49385;DHT22;36795;45.028;38.968;2022-07-19T01:58:52;22.90;48.60
49385;DHT22;36795;45.028;38.968;2022-07-19T02:01:39;22.90;48.60
49385;DHT22;36795;45.028;38.968;2022-07-19T02:04:25;22.90;48.60
49385;DHT22;36795;45.028;38.968;2022-07-19T02:07:11;23.00;48.60
49385;DHT22;36795;45.028;38.968;2022-07-19T02:09:57;22.90;48.50
49385;DHT22;36795;45.028;38.968;2022-07-19T02:12:43;22.90;48.60
49385;DHT22;36795;45.028;38.968;2022-07-19T02:15:30;22.90;48.70
49385;DHT22;36795;45.028;38.968;2022-07-19T02:18:16;22.90;48.80
49385;DHT22;36795;45.028;38.968;2022-07-19T02:21:03;22.90;48.80
49385;DHT22;36795;45.028;38.968;2022-07-19T02:23:48;22.80;48.90
49385;DHT22;36795;45.028;38.968;2022-07-19T02:26:35;22.90;49.00
49385;DHT22;36795;45.028;38.968;2022-07-19T02:29:21;22.80;49.00
49385;DHT22;36795;45.028;38.968;2022-07-19T02:32:07;22.80;49.10
49385;DHT22;36795;45.028;38.968;2022-07-19T02:34:53;22.70;49.10
49385;DHT22;36795;45.028;38.968;2022-07-19T02:37:40;22.70;49.20
49385;DHT22;36795;45.028;38.968;2022-07-19T02:40:26;22.70;49.40
49385;DHT22;36795;45.028;38.968;2022-07-19T02:43:13;22.70;49.30
49385;DHT22;36795;45.028;38.968;2022-07-19T02:45:59;22.70;49.50
49385;DHT22;36795;45.028;38.968;2022-07-19T02:48:45;22.70;49.40
49385;DHT22;36795;45.028;38.968;2022-07-19T02:51:31;22.70;49.50
49385;DHT22;36795;45.028;38.968;2022-07-19T02:54:18;22.70;49.40
49385;DHT22;36795;45.028;38.968;2022-07-19T02:57:04;22.70;49.40
49385;DHT22;36795;45.028;38.968;2022-07-19T02:59:50;22.70;49.30
49385;DHT22;36795;45.028;38.968;2022-07-19T03:02:36;22.70;49.30
49385;DHT22;36795;45.028;38.968;2022-07-19T03:05:22;22.70;49.30
49385;DHT22;36795;45.028;38.968;2022-07-19T03:08:08;22.60;49.30
49385;DHT22;36795;45.028;38.968;2022-07-19T03:10:55;22.60;49.30
49385;DHT22;36795;45.028;38.968;2022-07-19T03:13:40;22.70;49.10
49385;DHT22;36795;45.028;38.968;2022-07-19T03:16:27;22.80;49.00
49385;DHT22;36795;45.028;38.968;2022-07-19T03:19:12;22.80;48.90
49385;DHT22;36795;45.028;38.968;2022-07-19T03:21:58;22.80;48.90
49385;DHT22;36795;45.028;38.968;2022-07-19T03:24:44;22.90;48.90
49385;DHT22;36795;45.028;38.968;2022-07-19T03:27:31;22.90;48.90
49385;DHT22;36795;45.028;38.968;2022-07-19T03:30:16;22.80;48.90
49385;DHT22;36795;45.028;38.968;2022-07-19T03:33:02;22.80;48.90
49385;DHT22;36795;45.028;38.968;2022-07-19T03:35:48;22.80;48.90
49385;DHT22;36795;45.028;38.968;2022-07-19T03:38:35;22.90;49.00
49385;DHT22;36795;45.028;38.968;2022-07-19T03:41:20;22.90;48.80
49385;DHT22;36795;45.028;38.968;2022-07-19T03:44:07;23.00;48.80
49385;DHT22;36795;45.028;38.968;2022-07-19T03:46:53;23.00;48.70
49385;DHT22;36795;45.028;38.968;2022-07-19T03:49:39;23.00;48.50
49385;DHT22;36795;45.028;38.968;2022-07-19T03:52:26;23.00;48.60
49385;DHT22;36795;45.028;38.968;2022-07-19T03:55:12;23.10;48.60
49385;DHT22;36795;45.028;38.968;2022-07-19T03:57:57;23.10;48.20
49385;DHT22;36795;45.028;38.968;2022-07-19T04:00:44;23.10;48.20
49385;DHT22;36795;45.028;38.968;2022-07-19T04:03:31;23.20;48.20
49385;DHT22;36795;45.028;38.968;2022-07-19T04:06:20;23.20;48.10
49385;DHT22;36795;45.028;38.968;2022-07-19T04:09:06;23.20;48.10
49385;DHT22;36795;45.028;38.968;2022-07-19T04:11:53;23.20;48.20
49385;DHT22;36795;45.028;38.968;2022-07-19T04:14:39;23.30;48.20
49385;DHT22;36795;45.028;38.968;2022-07-19T04:17:25;23.30;48.10
49385;DHT22;36795;45.028;38.968;2022-07-19T04:20:12;23.40;48.20
49385;DHT22;36795;45.028;38.968;2022-07-19T04:22:58;23.30;48.00
49385;DHT22;36795;45.028;38.968;2022-07-19T04:25:44;23.30;48.10
49385;DHT22;36795;45.028;38.968;2022-07-19T04:28:30;23.40;48.10
49385;DHT22;36795;45.028;38.968;2022-07-19T04:31:16;23.50;47.90
49385;DHT22;36795;45.028;38.968;2022-07-19T04:34:02;23.60;47.80
49385;DHT22;36795;45.028;38.968;2022-07-19T04:36:48;23.70;47.60
49385;DHT22;36795;45.028;38.968;2022-07-19T04:39:34;23.80;47.40
49385;DHT22;36795;45.028;38.968;2022-07-19T04:42:20;23.90;47.30
49385;DHT22;36795;45.028;38.968;2022-07-19T04:45:07;23.90;47.10
49385;DHT22;36795;45.028;38.968;2022-07-19T04:47:54;23.90;47.00
49385;DHT22;36795;45.028;38.968;2022-07-19T04:50:40;23.90;47.20
49385;DHT22;36795;45.028;38.968;2022-07-19T04:53:26;23.90;47.20
49385;DHT22;36795;45.028;38.968;2022-07-19T04:56:13;23.90;47.00
49385;DHT22;36795;45.028;38.968;2022-07-19T04:58:59;24.00;47.10
49385;DHT22;36795;45.028;38.968;2022-07-19T05:01:45;23.90;47.20
49385;DHT22;36795;45.028;38.968;2022-07-19T05:04:32;23.90;47.30
49385;DHT22;36795;45.028;38.968;2022-07-19T05:07:18;24.00;47.30
49385;DHT22;36795;45.028;38.968;2022-07-19T05:10:08;24.00;47.20
49385;DHT22;36795;45.028;38.968;2022-07-19T05:12:54;24.10;47.20
49385;DHT22;36795;45.028;38.968;2022-07-19T05:15:43;24.10;47.10
49385;DHT22;36795;45.028;38.968;2022-07-19T05:18:29;24.10;47.20
49385;DHT22;36795;45.028;38.968;2022-07-19T05:21:16;24.20;47.10
49385;DHT22;36795;45.028;38.968;2022-07-19T05:24:02;24.10;47.00
49385;DHT22;36795;45.028;38.968;2022-07-19T05:26:50;24.10;46.90
49385;DHT22;36795;45.028;38.968;2022-07-19T05:29:36;24.20;47.00
49385;DHT22;36795;45.028;38.968;2022-07-19T05:32:23;24.30;46.80
49385;DHT22;36795;45.028;38.968;2022-07-19T05:35:11;24.40;46.50
49385;DHT22;36795;45.028;38.968;2022-07-19T05:37:58;24.50;46.50
49385;DHT22;36795;45.028;38.968;2022-07-19T05:40:47;24.50;46.40
49385;DHT22;36795;45.028;38.968;2022-07-19T05:43:35;24.70;46.30
49385;DHT22;36795;45.028;38.968;2022-07-19T05:46:21;24.70;46.20
49385;DHT22;36795;45.028;38.968;2022-07-19T05:49:08;24.70;45.90
49385;DHT22;36795;45.028;38.968;2022-07-19T05:51:54;24.70;45.80
49385;DHT22;36795;45.028;38.968;2022-07-19T05:54:40;24.80;45.60
49385;DHT22;36795;45.028;38.968;2022-07-19T05:57:26;24.80;45.10
49385;DHT22;36795;45.028;38.968;2022-07-19T06:00:13;24.70;44.80
49385;DHT22;36795;45.028;38.968;2022-07-19T06:03:00;24.70;44.80
49385;DHT22;36795;45.028;38.968;2022-07-19T06:05:46;24.80;44.90
49385;DHT22;36795;45.028;38.968;2022-07-19T06:08:32;24.80;44.80
49385;DHT22;36795;45.028;38.968;2022-07-19T06:11:18;24.90;44.80
49385;DHT22;36795;45.028;38.968;2022-07-19T06:14:05;25.00;44.70
49385;DHT22;36795;45.028;38.968;2022-07-19T06:16:52;25.00;44.70
49385;DHT22;36795;45.028;38.968;2022-07-19T06:19:40;24.90;44.70
49385;DHT22;36795;45.028;38.968;2022-07-19T06:22:29;25.00;44.80
49385;DHT22;36795;45.028;38.968;2022-07-19T06:25:17;25.00;44.50
49385;DHT22;36795;45.028;38.968;2022-07-19T06:28:03;25.00;44.70
49385;DHT22;36795;45.028;38.968;2022-07-19T06:30:49;25.10;44.70
49385;DHT22;36795;45.028;38.968;2022-07-19T06:33:37;25.30;44.70
49385;DHT22;36795;45.028;38.968;2022-07-19T06:36:24;25.40;44.60
49385;DHT22;36795;45.028;38.968;2022-07-19T06:39:10;25.40;44.90
49385;DHT22;36795;45.028;38.968;2022-07-19T06:41:56;25.50;45.00
49385;DHT22;36795;45.028;38.968;2022-07-19T06:44:42;25.60;44.90
49385;DHT22;36795;45.028;38.968;2022-07-19T06:47:29;25.70;44.80
49385;DHT22;36795;45.028;38.968;2022-07-19T06:50:15;25.50;44.50
49385;DHT22;36795;45.028;38.968;2022-07-19T06:53:01;25.60;44.60
49385;DHT22;36795;45.028;38.968;2022-07-19T06:55:47;25.50;44.40
49385;DHT22;36795;45.028;38.968;2022-07-19T06:58:33;25.50;44.60
49385;DHT22;36795;45.028;38.968;2022-07-19T07:01:19;25.50;44.60
49385;DHT22;36795;45.028;38.968;2022-07-19T07:04:05;25.50;44.40
49385;DHT22;36795;45.028;38.968;2022-07-19T07:06:51;25.50;44.60
49385;DHT22;36795;45.028;38.968;2022-07-19T07:09:38;25.70;44.60
49385;DHT22;36795;45.028;38.968;2022-07-19T07:12:23;25.80;44.40
49385;DHT22;36795;45.028;38.968;2022-07-19T07:15:10;25.90;44.30
49385;DHT22;36795;45.028;38.968;2022-07-19T07:17:56;26.00;44.10
49385;DHT22;36795;45.028;38.968;2022-07-19T07:20:42;26.00;44.10
49385;DHT22;36795;45.028;38.968;2022-07-19T07:23:28;25.90;44.30
49385;DHT22;36795;45.028;38.968;2022-07-19T07:26:14;25.90;44.50
49385;DHT22;36795;45.028;38.968;2022-07-19T07:29:01;25.90;44.80
49385;DHT22;36795;45.028;38.968;2022-07-19T07:31:47;26.10;44.60
49385;DHT22;36795;45.028;38.968;2022-07-19T07:34:33;26.10;44.10
49385;DHT22;36795;45.028;38.968;2022-07-19T07:37:19;26.20;44.10
49385;DHT22;36795;45.028;38.968;2022-07-19T07:40:05;26.40;43.60
49385;DHT22;36795;45.028;38.968;2022-07-19T07:42:52;26.50;43.50
49385;DHT22;36795;45.028;38.968;2022-07-19T07:45:38;26.60;44.20
49385;DHT22;36795;45.028;38.968;2022-07-19T07:48:24;26.70;43.60
49385;DHT22;36795;45.028;38.968;2022-07-19T07:51:10;26.70;43.10
49385;DHT22;36795;45.028;38.968;2022-07-19T07:54:00;26.60;43.00
49385;DHT22;36795;45.028;38.968;2022-07-19T07:56:46;26.60;43.10
49385;DHT22;36795;45.028;38.968;2022-07-19T07:59:32;26.60;43.00
49385;DHT22;36795;45.028;38.968;2022-07-19T08:02:18;26.60;42.90
49385;DHT22;36795;45.028;38.968;2022-07-19T08:05:04;26.60;42.90
49385;DHT22;36795;45.028;38.968;2022-07-19T08:07:50;26.60;42.90
49385;DHT22;36795;45.028;38.968;2022-07-19T08:10:36;26.60;42.90
49385;DHT22;36795;45.028;38.968;2022-07-19T08:13:23;26.60;42.60
49385;DHT22;36795;45.028;38.968;2022-07-19T08:16:09;26.60;42.50
49385;DHT22;36795;45.028;38.968;2022-07-19T08:18:55;26.60;42.50
49385;DHT22;36795;45.028;38.968;2022-07-19T08:21:42;26.50;42.40
49385;DHT22;36795;45.028;38.968;2022-07-19T08:24:27;26.50;42.50
49385;DHT22;36795;45.028;38.968;2022-07-19T08:27:14;26.50;42.60
49385;DHT22;36795;45.028;38.968;2022-07-19T08:30:00;26.60;42.60
49385;DHT22;36795;45.028;38.968;2022-07-19T08:32:47;26.70;42.70
49385;DHT22;36795;45.028;38.968;2022-07-19T08:35:33;26.80;42.80
49385;DHT22;36795;45.028;38.968;2022-07-19T08:38:19;26.90;42.90
49385;DHT22;36795;45.028;38.968;2022-07-19T08:41:06;26.90;42.40
49385;DHT22;36795;45.028;38.968;2022-07-19T08:43:53;26.90;42.50
49385;DHT22;36795;45.028;38.968;2022-07-19T08:46:42;26.80;41.70
49385;DHT22;36795;45.028;38.968;2022-07-19T08:49:29;26.80;41.30
49385;DHT22;36795;45.028;38.968;2022-07-19T08:52:16;27.00;41.40
49385;DHT22;36795;45.028;38.968;2022-07-19T08:55:04;27.10;40.80
49385;DHT22;36795;45.028;38.968;2022-07-19T08:57:50;27.10;40.90
49385;DHT22;36795;45.028;38.968;2022-07-19T09:00:42;27.20;41.00
49385;DHT22;36795;45.028;38.968;2022-07-19T09:03:28;27.20;40.80
49385;DHT22;36795;45.028;38.968;2022-07-19T09:06:14;27.10;41.10
49385;DHT22;36795;45.028;38.968;2022-07-19T09:09:03;27.00;41.00
49385;DHT22;36795;45.028;38.968;2022-07-19T09:11:51;27.10;41.20
49385;DHT22;36795;45.028;38.968;2022-07-19T09:14:38;27.30;40.70
49385;DHT22;36795;45.028;38.968;2022-07-19T09:17:27;27.40;40.50
49385;DHT22;36795;45.028;38.968;2022-07-19T09:20:26;27.50;39.90
49385;DHT22;36795;45.028;38.968;2022-07-19T09:23:13;27.50;39.90
49385;DHT22;36795;45.028;38.968;2022-07-19T09:26:02;27.40;39.80
49385;DHT22;36795;45.028;38.968;2022-07-19T09:28:49;27.20;39.90
49385;DHT22;36795;45.028;38.968;2022-07-19T09:31:35;27.40;40.30
49385;DHT22;36795;45.028;38.968;2022-07-19T09:34:39;27.70;39.80
49385;DHT22;36795;45.028;38.968;2022-07-19T09:37:30;27.70;39.40
49385;DHT22;36795;45.028;38.968;2022-07-19T09:40:18;27.60;39.20
49385;DHT22;36795;45.028;38.968;2022-07-19T09:43:04;27.70;39.60
49385;DHT22;36795;45.028;38.968;2022-07-19T09:45:50;27.70;39.60
49385;DHT22;36795;45.028;38.968;2022-07-19T09:48:43;27.80;39.60
49385;DHT22;36795;45.028;38.968;2022-07-19T09:51:34;27.70;39.10
49385;DHT22;36795;45.028;38.968;2022-07-19T09:54:23;27.60;39.20
49385;DHT22;36795;45.028;38.968;2022-07-19T09:57:10;27.60;39.20
49385;DHT22;36795;45.028;38.968;2022-07-19T09:59:57;27.60;39.30
49385;DHT22;36795;45.028;38.968;2022-07-19T10:02:49;27.60;39.20
49385;DHT22;36795;45.028;38.968;2022-07-19T10:05:36;27.60;39.30
49385;DHT22;36795;45.028;38.968;2022-07-19T10:08:22;27.60;39.20
49385;DHT22;36795;45.028;38.968;2022-07-19T10:11:09;27.70;39.20
49385;DHT22;36795;45.028;38.968;2022-07-19T10:13:55;27.70;39.20
49385;DHT22;36795;45.028;38.968;2022-07-19T10:19:44;28.00;39.20
49385;DHT22;36795;45.028;38.968;2022-07-19T10:22:31;28.10;39.40
49385;DHT22;36795;45.028;38.968;2022-07-19T10:25:18;28.30;39.30
49385;DHT22;36795;45.028;38.968;2022-07-19T10:28:05;28.50;38.70
49385;DHT22;36795;45.028;38.968;2022-07-19T10:30:51;28.30;38.90
49385;DHT22;36795;45.028;38.968;2022-07-19T10:33:37;28.40;38.90
49385;DHT22;36795;45.028;38.968;2022-07-19T10:36:43;28.50;38.70
49385;DHT22;36795;45.028;38.968;2022-07-19T10:39:35;28.60;38.40
49385;DHT22;36795;45.028;38.968;2022-07-19T10:42:22;28.50;38.20
49385;DHT22;36795;45.028;38.968;2022-07-19T10:45:11;28.40;38.40
49385;DHT22;36795;45.028;38.968;2022-07-19T10:48:06;28.40;38.60
49385;DHT22;36795;45.028;38.968;2022-07-19T10:50:57;28.30;38.40
49385;DHT22;36795;45.028;38.968;2022-07-19T10:56:38;28.30;38.80
49385;DHT22;36795;45.028;38.968;2022-07-19T10:59:32;28.40;39.00
49385;DHT22;36795;45.028;38.968;2022-07-19T11:02:23;28.50;38.40
49385;DHT22;36795;45.028;38.968;2022-07-19T11:05:28;28.40;38.40
49385;DHT22;36795;45.028;38.968;2022-07-19T11:08:16;28.30;38.30
49385;DHT22;36795;45.028;38.968;2022-07-19T11:11:13;28.20;38.40
49385;DHT22;36795;45.028;38.968;2022-07-19T11:14:04;28.40;38.40
49385;DHT22;36795;45.028;38.968;2022-07-19T11:16:59;28.30;38.70
49385;DHT22;36795;45.028;38.968;2022-07-19T11:20:09;28.40;38.80
49385;DHT22;36795;45.028;38.968;2022-07-19T11:22:56;28.40;38.70
49385;DHT22;36795;45.028;38.968;2022-07-19T11:25:44;28.40;38.90
49385;DHT22;36795;45.028;38.968;2022-07-19T11:28:31;28.50;38.70
49385;DHT22;36795;45.028;38.968;2022-07-19T11:31:21;28.50;38.50
49385;DHT22;36795;45.028;38.968;2022-07-19T11:34:11;28.50;38.30
49385;DHT22;36795;45.028;38.968;2022-07-19T11:36:58;28.50;38.20
49385;DHT22;36795;45.028;38.968;2022-07-19T11:39:48;28.60;38.10
49385;DHT22;36795;45.028;38.968;2022-07-19T11:42:38;29.00;37.90
49385;DHT22;36795;45.028;38.968;2022-07-19T11:45:25;29.50;37.80
49385;DHT22;36795;45.028;38.968;2022-07-19T11:48:12;29.60;37.10
49385;DHT22;36795;45.028;38.968;2022-07-19T11:51:09;29.50;37.50
49385;DHT22;36795;45.028;38.968;2022-07-19T11:53:57;29.30;37.50
49385;DHT22;36795;45.028;38.968;2022-07-19T11:56:44;29.50;37.50
49385;DHT22;36795;45.028;38.968;2022-07-19T11:59:31;29.50;37.50
49385;DHT22;36795;45.028;38.968;2022-07-19T12:02:17;29.40;37.40
49385;DHT22;36795;45.028;38.968;2022-07-19T12:05:13;29.20;37.50
49385;DHT22;36795;45.028;38.968;2022-07-19T12:08:01;29.30;37.50
49385;DHT22;36795;45.028;38.968;2022-07-19T12:10:48;29.40;38.00
49385;DHT22;36795;45.028;38.968;2022-07-19T12:13:35;29.30;37.30
49385;DHT22;36795;45.028;38.968;2022-07-19T12:16:22;29.20;37.60
49385;DHT22;36795;45.028;38.968;2022-07-19T12:19:12;29.30;37.80
49385;DHT22;36795;45.028;38.968;2022-07-19T12:22:00;29.60;37.50
49385;DHT22;36795;45.028;38.968;2022-07-19T12:24:46;29.80;36.90
49385;DHT22;36795;45.028;38.968;2022-07-19T12:27:33;29.80;37.10
49385;DHT22;36795;45.028;38.968;2022-07-19T12:30:19;29.90;37.20
49385;DHT22;36795;45.028;38.968;2022-07-19T12:33:12;30.00;36.80
49385;DHT22;36795;45.028;38.968;2022-07-19T12:35:58;29.70;37.20
49385;DHT22;36795;45.028;38.968;2022-07-19T12:38:45;29.60;37.20
49385;DHT22;36795;45.028;38.968;2022-07-19T12:41:31;29.40;37.60
49385;DHT22;36795;45.028;38.968;2022-07-19T12:44:17;29.40;37.60
49385;DHT22;36795;45.028;38.968;2022-07-19T12:47:03;29.30;37.60
49385;DHT22;36795;45.028;38.968;2022-07-19T12:49:49;29.10;37.90
49385;DHT22;36795;45.028;38.968;2022-07-19T12:52:35;29.20;38.00
49385;DHT22;36795;45.028;38.968;2022-07-19T12:55:23;29.20;38.00
49385;DHT22;36795;45.028;38.968;2022-07-19T12:58:10;29.20;38.10
49385;DHT22;36795;45.028;38.968;2022-07-19T13:00:56;29.10;38.20
49385;DHT22;36795;45.028;38.968;2022-07-19T13:03:43;29.10;38.30
49385;DHT22;36795;45.028;38.968;2022-07-19T13:06:29;29.10;38.30
49385;DHT22;36795;45.028;38.968;2022-07-19T13:09:15;29.30;38.20
49385;DHT22;36795;45.028;38.968;2022-07-19T13:12:03;29.40;38.10
49385;DHT22;36795;45.028;38.968;2022-07-19T13:14:49;29.40;38.30
49385;DHT22;36795;45.028;38.968;2022-07-19T13:17:36;29.30;38.40
49385;DHT22;36795;45.028;38.968;2022-07-19T13:20:22;29.00;38.90
49385;DHT22;36795;45.028;38.968;2022-07-19T13:23:09;28.90;39.30
49385;DHT22;36795;45.028;38.968;2022-07-19T13:25:55;28.90;39.20
49385;DHT22;36795;45.028;38.968;2022-07-19T13:28:41;29.10;39.10
49385;DHT22;36795;45.028;38.968;2022-07-19T13:31:27;29.30;38.70
49385;DHT22;36795;45.028;38.968;2022-07-19T13:34:14;29.40;38.60
49385;DHT22;36795;45.028;38.968;2022-07-19T13:37:00;29.50;39.00
49385;DHT22;36795;45.028;38.968;2022-07-19T13:39:46;29.60;39.00
49385;DHT22;36795;45.028;38.968;2022-07-19T13:42:32;29.60;39.10
49385;DHT22;36795;45.028;38.968;2022-07-19T13:45:19;29.50;39.10
49385;DHT22;36795;45.028;38.968;2022-07-19T13:48:05;29.50;39.50
49385;DHT22;36795;45.028;38.968;2022-07-19T13:50:51;29.50;39.80
49385;DHT22;36795;45.028;38.968;2022-07-19T13:53:37;29.60;39.90
49385;DHT22;36795;45.028;38.968;2022-07-19T13:56:24;29.50;41.70
49385;DHT22;36795;45.028;38.968;2022-07-19T13:59:10;29.50;43.80
49385;DHT22;36795;45.028;38.968;2022-07-19T14:01:56;29.50;44.70
49385;DHT22;36795;45.028;38.968;2022-07-19T14:04:43;29.30;45.40
49385;DHT22;36795;45.028;38.968;2022-07-19T14:07:29;29.30;45.90
49385;DHT22;36795;45.028;38.968;2022-07-19T14:10:16;29.70;45.50
49385;DHT22;36795;45.028;38.968;2022-07-19T14:13:02;30.30;44.90
49385;DHT22;36795;45.028;38.968;2022-07-19T14:15:48;30.70;44.30
49385;DHT22;36795;45.028;38.968;2022-07-19T14:18:34;31.30;43.60
49385;DHT22;36795;45.028;38.968;2022-07-19T14:21:20;31.80;42.90
49385;DHT22;36795;45.028;38.968;2022-07-19T14:24:06;32.10;42.40
49385;DHT22;36795;45.028;38.968;2022-07-19T14:26:54;32.20;41.50
49385;DHT22;36795;45.028;38.968;2022-07-19T14:29:41;32.10;41.30
49385;DHT22;36795;45.028;38.968;2022-07-19T14:32:27;31.40;42.40
49385;DHT22;36795;45.028;38.968;2022-07-19T14:35:13;30.70;43.60
49385;DHT22;36795;45.028;38.968;2022-07-19T14:38:02;30.30;44.60
49385;DHT22;36795;45.028;38.968;2022-07-19T14:40:49;30.10;45.00
49385;DHT22;36795;45.028;38.968;2022-07-19T14:43:36;30.00;45.10
49385;DHT22;36795;45.028;38.968;2022-07-19T14:46:21;30.20;45.00
49385;DHT22;36795;45.028;38.968;2022-07-19T14:49:08;30.30;44.70
49385;DHT22;36795;45.028;38.968;2022-07-19T14:51:54;30.10;45.00
49385;DHT22;36795;45.028;38.968;2022-07-19T14:54:40;29.80;45.50
49385;DHT22;36795;45.028;38.968;2022-07-19T14:57:26;29.70;45.80
49385;DHT22;36795;45.028;38.968;2022-07-19T15:00:13;29.80;45.90
49385;DHT22;36795;45.028;38.968;2022-07-19T15:02:59;29.60;46.30
49385;DHT22;36795;45.028;38.968;2022-07-19T15:05:45;29.30;46.80
49385;DHT22;36795;45.028;38.968;2022-07-19T15:08:31;29.00;47.00
49385;DHT22;36795;45.028;38.968;2022-07-19T15:11:17;28.70;48.10
49385;DHT22;36795;45.028;38.968;2022-07-19T15:14:03;28.50;49.00
49385;DHT22;36795;45.028;38.968;2022-07-19T15:16:49;28.40;50.10
49385;DHT22;36795;45.028;38.968;2022-07-19T15:19:35;28.20;51.40
49385;DHT22;36795;45.028;38.968;2022-07-19T15:22:22;28.00;52.20
49385;DHT22;36795;45.028;38.968;2022-07-19T15:25:08;27.90;53.00
49385;DHT22;36795;45.028;38.968;2022-07-19T15:27:54;27.80;53.80
49385;DHT22;36795;45.028;38.968;2022-07-19T15:30:42;27.70;55.00
49385;DHT22;36795;45.028;38.968;2022-07-19T15:33:29;27.60;55.60
49385;DHT22;36795;45.028;38.968;2022-07-19T15:36:15;27.50;56.30
49385;DHT22;36795;45.028;38.968;2022-07-19T15:39:03;27.40;57.30
49385;DHT22;36795;45.028;38.968;2022-07-19T15:41:48;27.20;58.00
49385;DHT22;36795;45.028;38.968;2022-07-19T15:44:35;27.10;58.50
49385;DHT22;36795;45.028;38.968;2022-07-19T15:47:21;27.00;58.60
49385;DHT22;36795;45.028;38.968;2022-07-19T15:50:08;26.90;58.50
49385;DHT22;36795;45.028;38.968;2022-07-19T15:52:55;26.90;58.70
49385;DHT22;36795;45.028;38.968;2022-07-19T15:55:41;26.90;57.50
49385;DHT22;36795;45.028;38.968;2022-07-19T15:58:27;26.80;57.00
49385;DHT22;36795;45.028;38.968;2022-07-19T16:01:14;26.80;56.90
49385;DHT22;36795;45.028;38.968;2022-07-19T16:04:00;26.70;56.90
49385;DHT22;36795;45.028;38.968;2022-07-19T16:06:46;26.70;56.70
49385;DHT22;36795;45.028;38.968;2022-07-19T16:09:32;26.70;56.60
49385;DHT22;36795;45.028;38.968;2022-07-19T16:12:18;26.70;56.50
49385;DHT22;36795;45.028;38.968;2022-07-19T16:15:06;26.70;57.20
49385;DHT22;36795;45.028;38.968;2022-07-19T16:17:52;26.60;56.50
49385;DHT22;36795;45.028;38.968;2022-07-19T16:20:38;26.40;56.00
49385;DHT22;36795;45.028;38.968;2022-07-19T16:23:24;26.50;55.70
49385;DHT22;36795;45.028;38.968;2022-07-19T16:26:11;26.50;54.90
49385;DHT22;36795;45.028;38.968;2022-07-19T16:28:57;26.50;54.70
49385;DHT22;36795;45.028;38.968;2022-07-19T16:31:44;26.40;54.70
49385;DHT22;36795;45.028;38.968;2022-07-19T16:34:30;26.40;55.60
49385;DHT22;36795;45.028;38.968;2022-07-19T16:37:18;26.30;56.10
49385;DHT22;36795;45.028;38.968;2022-07-19T16:40:07;26.30;56.50
49385;DHT22;36795;45.028;38.968;2022-07-19T16:42:53;26.30;56.80
49385;DHT22;36795;45.028;38.968;2022-07-19T16:45:40;26.20;57.30
49385;DHT22;36795;45.028;38.968;2022-07-19T16:48:26;26.20;58.00
49385;DHT22;36795;45.028;38.968;2022-07-19T16:51:12;26.10;58.80
49385;DHT22;36795;45.028;38.968;2022-07-19T16:53:58;26.00;59.70
49385;DHT22;36795;45.028;38.968;2022-07-19T16:56:44;26.00;60.40
49385;DHT22;36795;45.028;38.968;2022-07-19T16:59:31;25.90;60.80
49385;DHT22;36795;45.028;38.968;2022-07-19T17:02:17;25.90;61.20
49385;DHT22;36795;45.028;38.968;2022-07-19T17:05:03;25.90;61.30
49385;DHT22;36795;45.028;38.968;2022-07-19T17:07:50;25.90;61.60
49385;DHT22;36795;45.028;38.968;2022-07-19T17:10:36;25.90;61.80
49385;DHT22;36795;45.028;38.968;2022-07-19T17:13:22;25.80;62.30
49385;DHT22;36795;45.028;38.968;2022-07-19T17:16:09;25.80;62.50
49385;DHT22;36795;45.028;38.968;2022-07-19T17:18:55;25.70;62.90
49385;DHT22;36795;45.028;38.968;2022-07-19T17:21:41;25.60;63.40
49385;DHT22;36795;45.028;38.968;2022-07-19T17:24:27;25.60;63.60